createdAt,value
2023-01-25T00:02:22.754Z,8
2023-01-25T00:08:42.729Z,8
2023-01-25T00:15:05.959Z,3.5
2023-01-25T00:21:25.615Z,3.5
2023-01-25T00:27:48.481Z,5.8
2023-01-25T00:34:08.549Z,5.8
2023-01-25T00:40:31.710Z,7.5
2023-01-25T00:46:51.691Z,7.5
2023-01-25T00:53:14.531Z,7.2
2023-01-25T00:59:34.558Z,7.2
2023-01-25T01:05:57.497Z,8.5
2023-01-25T01:12:17.662Z,8.5
2023-01-25T01:18:40.563Z,3.5
2023-01-25T01:25:00.652Z,3.5
2023-01-25T01:31:23.575Z,4.5
2023-01-25T01:37:43.562Z,4.5
2023-01-25T01:44:06.630Z,4.3
2023-01-25T01:50:26.662Z,4.3
2023-01-25T01:56:49.660Z,7.6
2023-01-25T02:03:09.777Z,7.6
2023-01-25T02:09:32.579Z,6.7
2023-01-25T02:15:52.835Z,6.7
2023-01-25T02:22:15.513Z,6.4
2023-01-25T02:28:35.565Z,6.4
2023-01-25T02:34:58.717Z,7.9
2023-01-25T02:41:18.749Z,7.9
2023-01-25T02:47:41.602Z,4
2023-01-25T02:54:01.695Z,4
2023-01-25T03:00:24.608Z,6.1
2023-01-25T03:06:44.555Z,6.1
2023-01-25T03:13:07.561Z,6.7
2023-01-25T03:19:27.539Z,6.7
2023-01-25T03:25:50.702Z,6.1
2023-01-25T03:32:10.747Z,6.1
2023-01-25T03:38:33.605Z,4.9
2023-01-25T03:44:53.654Z,4.9
2023-01-25T03:51:16.609Z,6.4
2023-01-25T03:57:36.520Z,6.4
2023-01-25T04:03:59.517Z,7.7
2023-01-25T04:10:19.770Z,7.7
2023-01-25T04:35:24.944Z,12.5
2023-01-25T04:41:44.828Z,12.5
2023-01-25T04:48:07.510Z,3.3
2023-01-25T04:54:27.603Z,3.3
2023-01-25T05:00:50.658Z,4.6
2023-01-25T05:07:10.493Z,4.6
2023-01-25T05:13:33.723Z,6.3
2023-01-25T05:19:53.589Z,6.3
2023-01-25T05:26:16.508Z,7.8
2023-01-25T05:32:36.714Z,7.8
2023-01-25T05:38:59.510Z,4.3
2023-01-25T05:45:19.586Z,4.3
2023-01-25T05:51:42.619Z,5.4
2023-01-25T05:58:02.617Z,5.4
2023-01-25T06:04:25.529Z,5.7
2023-01-25T06:10:45.685Z,5.7
2023-01-25T06:17:08.627Z,5.4
2023-01-25T06:23:28.517Z,5.4
2023-01-25T06:29:51.520Z,10.7
2023-01-25T06:36:11.523Z,10.7
2023-01-25T06:42:34.539Z,7.4
2023-01-25T06:48:54.675Z,7.4
2023-01-25T06:55:17.596Z,4.2
2023-01-25T07:01:37.742Z,4.2
2023-01-25T07:08:00.748Z,7.9
2023-01-25T07:14:20.516Z,7.9
2023-01-25T07:20:43.527Z,6
2023-01-25T07:27:03.618Z,6
2023-01-25T07:33:26.535Z,7
2023-01-25T07:39:46.572Z,7
2023-01-25T07:46:09.765Z,6.5
2023-01-25T07:52:29.587Z,6.5
2023-01-25T07:58:52.541Z,4.4
2023-01-25T08:05:12.695Z,4.4
2023-01-25T08:11:35.697Z,5.2
2023-01-25T08:17:55.491Z,5.2
2023-01-25T08:24:20.688Z,7.9
2023-01-25T08:30:43.255Z,7.9
2023-01-25T08:37:01.509Z,9.9
2023-01-25T08:43:21.565Z,9.9
2023-01-25T08:49:44.511Z,5.2
2023-01-25T08:56:04.499Z,5.2
2023-01-25T09:02:27.665Z,6
2023-01-25T09:08:47.602Z,6
2023-01-25T09:15:10.856Z,4.7
2023-01-25T09:21:30.547Z,4.7
2023-01-25T09:27:53.502Z,7.5
2023-01-25T09:50:59.491Z,8.1
2023-01-25T09:57:19.527Z,8.1
2023-01-25T10:03:42.724Z,7.4
2023-01-25T10:10:03.073Z,7.4
2023-01-25T10:16:26.705Z,7.2
2023-01-25T10:22:45.752Z,7.2
2023-01-25T10:29:08.732Z,4.3
2023-01-25T10:35:35.074Z,4.3
2023-01-25T10:41:51.532Z,4.2
2023-01-25T10:48:11.699Z,4.2
2023-01-25T10:54:35.701Z,6.4
2023-01-25T11:00:56.840Z,6.4
2023-01-25T11:07:19.561Z,5.3
2023-01-25T11:13:39.519Z,5.3
2023-01-25T11:20:02.518Z,7
2023-01-25T11:26:22.905Z,7
2023-01-25T11:32:45.539Z,7.4
2023-01-25T11:39:05.545Z,7.4
2023-01-25T11:45:29.509Z,6.3
2023-01-25T11:51:51.232Z,6.3
2023-01-25T11:58:12.552Z,8
2023-01-25T12:04:32.539Z,8
2023-01-25T12:10:55.557Z,9.4
2023-01-25T12:17:15.596Z,9.4
2023-01-25T12:23:38.587Z,8
2023-01-25T12:29:58.735Z,8
2023-01-25T12:36:21.751Z,8.6
2023-01-25T12:42:41.694Z,8.6
2023-01-25T12:49:04.513Z,6.4
2023-01-25T12:55:24.627Z,6.4
2023-01-25T13:01:47.637Z,6.2
2023-01-25T13:08:07.598Z,6.2
2023-01-25T13:14:30.646Z,18.4
2023-01-25T13:20:50.662Z,18.4
2023-01-25T13:27:13.547Z,10.6
2023-01-25T13:33:33.494Z,10.6
2023-01-25T13:39:56.711Z,6
2023-01-25T13:46:16.696Z,6
2023-01-25T13:52:39.607Z,8.4
2023-01-25T13:58:59.568Z,8.4
2023-01-25T14:05:22.712Z,8.9
2023-01-25T14:11:42.706Z,8.9
2023-01-25T14:18:05.537Z,9.5
2023-01-25T14:24:25.508Z,9.5
2023-01-25T14:30:48.597Z,10.1
2023-01-25T14:53:37.473Z,7.4
2023-01-25T14:59:57.564Z,7.4
2023-01-25T15:06:20.530Z,7.5
2023-01-25T15:12:40.584Z,7.5
2023-01-25T15:19:03.655Z,6.9
2023-01-25T15:25:24.183Z,6.9
2023-01-25T15:31:46.568Z,8.4
2023-01-25T15:38:06.524Z,8.4
2023-01-25T15:44:30.125Z,8.6
2023-01-25T15:50:49.793Z,8.6
2023-01-25T15:57:12.645Z,7.7
2023-01-25T16:03:32.508Z,7.7
2023-01-25T16:09:55.516Z,13.1
2023-01-25T16:16:15.662Z,13.1
2023-01-25T16:22:38.564Z,9.3
2023-01-25T16:28:59.820Z,9.3
2023-01-25T16:35:22.522Z,8.3
2023-01-25T16:41:42.709Z,8.3
2023-01-25T16:48:05.613Z,11.1
2023-01-25T16:54:25.641Z,11.1
2023-01-25T17:00:48.563Z,14.3
2023-01-25T17:07:08.717Z,14.3
2023-01-25T17:13:31.659Z,13.4
2023-01-25T17:19:51.646Z,13.4
2023-01-25T17:26:14.861Z,7.6
2023-01-25T17:32:34.536Z,7.6
2023-01-25T17:38:57.539Z,8.6
2023-01-25T17:45:18.198Z,8.6
2023-01-25T17:51:41.562Z,11.4
2023-01-25T17:58:01.583Z,11.4
2023-01-25T18:04:24.738Z,13.3
2023-01-25T18:10:44.503Z,13.3
2023-01-25T18:17:07.645Z,9.5
2023-01-25T18:23:27.875Z,9.5
2023-01-25T18:29:50.881Z,11.1
2023-01-25T18:36:10.556Z,11.1
2023-01-25T18:42:33.599Z,14.8
2023-01-25T18:48:53.774Z,14.8
2023-01-25T18:55:16.741Z,13.2
2023-01-25T19:01:36.757Z,13.2
2023-01-25T19:07:59.523Z,13.8
2023-01-25T19:14:19.720Z,13.8
2023-01-25T19:20:42.672Z,12.7
2023-01-25T19:27:02.543Z,12.7
2023-01-25T19:33:26.529Z,13.9
2023-01-25T19:51:11.138Z,13.9
2023-01-25T19:57:33.030Z,22.3
2023-01-25T20:04:10.422Z,22.3
2023-01-25T20:10:33.549Z,22.3
2023-01-25T20:16:53.545Z,22.3
2023-01-25T20:23:16.660Z,10
2023-01-25T20:29:36.573Z,10
2023-01-25T20:35:59.749Z,9.2
2023-01-25T20:42:19.661Z,9.2
2023-01-25T20:48:42.546Z,6.1
2023-01-25T20:55:02.580Z,6.1
2023-01-25T21:01:25.576Z,9.5
2023-01-25T21:07:45.523Z,9.5
2023-01-25T21:14:08.710Z,8.9
2023-01-25T21:20:28.577Z,8.9
2023-01-25T21:26:51.541Z,7.6
2023-01-25T21:33:11.547Z,7.6
2023-01-25T21:39:34.723Z,10.9
2023-01-25T21:45:54.843Z,10.9
2023-01-25T21:52:17.618Z,7.6
2023-01-25T21:58:37.521Z,7.6
2023-01-25T22:05:00.577Z,8
2023-01-25T22:11:20.621Z,8
2023-01-25T22:17:43.738Z,7.1
2023-01-25T22:24:03.596Z,7.1
2023-01-25T22:30:26.584Z,7.8
2023-01-25T22:36:46.484Z,7.8
2023-01-25T22:43:09.625Z,3.6
2023-01-25T22:49:29.647Z,3.6
2023-01-25T22:55:52.514Z,6.8
2023-01-25T23:02:12.698Z,6.8
2023-01-25T23:25:15.551Z,23
2023-01-25T23:31:35.648Z,23
2023-01-25T23:37:58.598Z,23
2023-01-25T23:44:18.695Z,23
2023-01-25T23:50:41.598Z,12.8
2023-01-25T23:57:01.835Z,12.8
